createdAt,value
2019-06-07T00:01:05.303Z,52.60
2019-06-07T00:03:37.742Z,53.16
2019-06-07T00:06:14.263Z,54.06
2019-06-07T00:08:44.127Z,54.16
2019-06-07T00:11:20.303Z,54.92
2019-06-07T00:13:50.859Z,54.56
2019-06-07T00:16:23.602Z,55.21
2019-06-07T00:18:55.972Z,54.74
2019-06-07T00:22:12.695Z,53.96
2019-06-07T00:24:02.609Z,54.17
2019-06-07T00:26:55.065Z,54.68
2019-06-07T00:29:09.379Z,55.20
2019-06-07T00:31:43.863Z,55.35
2019-06-07T00:34:19.150Z,54.59
2019-06-07T00:36:51.200Z,55.88
2019-06-07T00:39:25.984Z,56.62
2019-06-07T00:41:57.843Z,55.88
2019-06-07T00:44:30.519Z,56.04
2019-06-07T00:47:02.897Z,56.05
2019-06-07T00:49:40.945Z,56.01
2019-06-07T00:52:09.239Z,55.70
2019-06-07T00:54:41.554Z,56.38
2019-06-07T00:57:16.639Z,57.75
2019-06-07T00:59:48.851Z,57.80
2019-06-07T01:02:25.725Z,57.49
2019-06-07T01:04:56.284Z,57.87
2019-06-07T01:07:28.640Z,57.83
2019-06-07T01:10:01.719Z,57.24
2019-06-07T01:12:34.421Z,57.35
2019-06-07T01:15:07.504Z,57.01
2019-06-07T01:18:10.251Z,57.04
2019-06-07T01:20:16.691Z,56.12
2019-06-07T01:22:49.859Z,56.80
2019-06-07T01:25:23.880Z,56.28
2019-06-07T01:27:56.066Z,56.09
2019-06-07T01:30:29.455Z,56.00
2019-06-07T01:33:02.021Z,54.93
2019-06-07T01:35:34.374Z,54.50
2019-06-07T01:38:06.699Z,55.09
2019-06-07T01:40:39.448Z,55.35
2019-06-07T01:43:12.460Z,55.99
2019-06-07T01:45:44.727Z,55.95
2019-06-07T01:48:19.811Z,57.19
2019-06-07T01:50:51.354Z,57.09
2019-06-07T01:53:25.784Z,57.49
2019-06-07T01:55:57.528Z,57.91
2019-06-07T01:58:30.928Z,56.92
2019-06-07T02:01:03.261Z,56.68
2019-06-07T02:03:35.619Z,57.37
2019-06-07T02:06:08.109Z,57.56
2019-06-07T02:08:40.822Z,58.12
2019-06-07T02:11:13.139Z,58.60
2019-06-07T02:13:53.767Z,58.69
2019-06-07T02:16:39.099Z,57.76
2019-06-07T02:19:06.379Z,56.93
2019-06-07T02:21:38.572Z,56.15
2019-06-07T02:24:11.521Z,55.40
2019-06-07T02:26:44.655Z,54.12
2019-06-07T02:29:17.006Z,54.88
2019-06-07T02:31:49.431Z,56.83
2019-06-07T02:34:24.102Z,57.93
2019-06-07T02:36:56.567Z,59.26
2019-06-07T02:39:34.505Z,59.79
2019-06-07T02:42:03.180Z,60.51
2019-06-07T02:44:39.614Z,60.63
2019-06-07T02:47:10.314Z,59.56
2019-06-07T02:49:44.455Z,59.83
2019-06-07T02:52:16.666Z,61.17
2019-06-07T02:55:06.056Z,60.74
2019-06-07T02:57:41.734Z,60.02
2019-06-07T03:00:41.860Z,59.15
2019-06-07T03:02:49.047Z,57.63
2019-06-07T03:05:21.285Z,57.00
2019-06-07T03:07:57.207Z,57.70
2019-06-07T03:10:34.784Z,58.36
2019-06-07T03:13:10.522Z,57.27
2019-06-07T03:15:50.166Z,56.73
2019-06-07T03:18:41.718Z,56.21
2019-06-07T03:21:15.647Z,55.90
2019-06-07T03:23:49.138Z,56.11
2019-06-07T03:26:25.336Z,56.10
2019-06-07T03:29:02.654Z,56.00
2019-06-07T03:31:43.385Z,55.63
2019-06-07T03:34:08.754Z,55.18
2019-06-07T03:36:40.992Z,56.52
2019-06-07T03:39:14.010Z,56.59
2019-06-07T03:42:04.817Z,54.46
2019-06-07T03:44:20.260Z,54.42
2019-06-07T03:46:52.709Z,54.51
2019-06-07T03:49:31.504Z,54.71
2019-06-07T03:52:03.981Z,54.82
2019-06-07T03:54:38.406Z,54.89
2019-06-07T03:57:13.064Z,54.85
2019-06-07T03:59:50.946Z,55.65
2019-06-07T04:02:23.188Z,55.23
2019-06-07T04:05:20.333Z,54.59
2019-06-07T04:08:16.102Z,53.98
2019-06-07T04:14:03.537Z,53.79
2019-06-07T04:16:40.969Z,53.81
2019-06-07T04:19:14.113Z,54.61
2019-06-07T04:21:47.487Z,54.53
2019-06-07T04:24:19.917Z,54.64
2019-06-07T04:26:52.146Z,53.39
2019-06-07T04:29:33.226Z,53.89
2019-06-07T04:31:59.414Z,54.10
2019-06-07T04:34:34.991Z,53.62
2019-06-07T04:37:07.350Z,53.22
2019-06-07T04:39:45.101Z,53.26
2019-06-07T04:42:17.779Z,53.29
2019-06-07T04:44:53.396Z,52.63
2019-06-07T04:47:26.978Z,53.19
2019-06-07T04:50:03.629Z,52.21
2019-06-07T04:52:40.574Z,52.21
2019-06-07T04:55:10.615Z,52.05
2019-06-07T04:57:43.423Z,51.74
2019-06-07T05:00:48.703Z,51.45
2019-06-07T05:02:52.760Z,51.07
2019-06-07T05:05:25.014Z,51.30
2019-06-07T05:07:57.147Z,51.04
2019-06-07T05:10:30.737Z,50.91
2019-06-07T05:13:14.298Z,50.34
2019-06-07T05:15:46.560Z,50.30
2019-06-07T05:18:18.756Z,49.79
2019-06-07T05:20:52.559Z,50.09
2019-06-07T05:24:02.470Z,50.08
2019-06-07T05:26:02.854Z,49.69
2019-06-07T05:28:37.871Z,49.78
2019-06-07T05:31:11.602Z,49.70
2019-06-07T05:33:48.578Z,48.76
2019-06-07T05:36:27.619Z,48.18
2019-06-07T05:39:17.483Z,46.52
2019-06-07T05:41:49.680Z,47.14
2019-06-07T05:44:22.178Z,45.80
2019-06-07T05:46:56.228Z,45.39
2019-06-07T05:49:29.405Z,45.60
2019-06-07T05:52:04.656Z,44.93
2019-06-07T05:54:38.229Z,43.98
2019-06-07T05:57:10.858Z,44.34
2019-06-07T05:59:45.025Z,44.82
2019-06-07T06:02:22.630Z,44.98
2019-06-07T06:04:50.813Z,45.49
2019-06-07T06:07:23.094Z,45.09
2019-06-07T06:09:55.333Z,45.26
2019-06-07T06:12:35.289Z,45.33
2019-06-07T06:15:03.182Z,46.53
2019-06-07T06:17:37.703Z,46.19
2019-06-07T06:20:09.799Z,46.18
2019-06-07T06:22:44.830Z,45.33
2019-06-07T06:25:34.397Z,45.48
2019-06-07T06:28:12.498Z,44.98
2019-06-07T06:30:30.352Z,44.54
2019-06-07T06:33:05.310Z,44.94
2019-06-07T06:35:39.809Z,44.83
2019-06-07T06:38:12.484Z,44.67
2019-06-07T06:40:49.065Z,45.63
2019-06-07T06:43:21.997Z,46.43
2019-06-07T06:45:55.474Z,46.09
2019-06-07T06:48:27.791Z,45.19
2019-06-07T06:51:00.217Z,45.07
2019-06-07T06:53:33.412Z,45.44
2019-06-07T06:56:05.818Z,44.02
2019-06-07T06:59:21.872Z,43.18
2019-06-07T07:01:14.013Z,43.43
2019-06-07T07:04:07.279Z,42.94
2019-06-07T07:06:26.350Z,42.58
2019-06-07T07:08:58.693Z,43.17
2019-06-07T07:12:01.368Z,43.06
2019-06-07T07:14:21.302Z,41.69
2019-06-07T07:16:56.534Z,41.66
2019-06-07T07:19:33.792Z,41.31
2019-06-07T07:22:11.753Z,40.99
2019-06-07T07:24:51.782Z,41.44
2019-06-07T07:27:23.109Z,40.07
2019-06-07T07:30:34.240Z,38.68
2019-06-07T07:32:29.961Z,38.24
2019-06-07T07:35:04.208Z,38.01
2019-06-07T07:37:37.472Z,37.90
2019-06-07T07:40:55.493Z,38.64
2019-06-07T07:42:46.907Z,38.81
2019-06-07T07:45:18.958Z,40.21
2019-06-07T07:48:08.649Z,40.13
2019-06-07T07:50:26.257Z,40.75
2019-06-07T07:53:00.495Z,41.15
2019-06-07T07:55:33.083Z,40.89
2019-06-07T07:58:06.612Z,41.36
2019-06-07T08:01:00.699Z,41.11
2019-06-07T08:03:39.827Z,42.60
2019-06-07T08:06:13.199Z,40.79
2019-06-07T08:08:55.737Z,40.21
2019-06-07T08:11:27.139Z,40.16
2019-06-07T08:14:01.546Z,40.15
2019-06-07T08:16:34.505Z,40.25
2019-06-07T08:19:07.835Z,39.82
2019-06-07T08:21:40.149Z,40.10
2019-06-07T08:24:18.371Z,41.00
2019-06-07T08:27:12.306Z,41.03
2019-06-07T08:29:44.244Z,41.21
2019-06-07T08:32:06.293Z,40.15
2019-06-07T08:34:40.381Z,39.20
2019-06-07T08:37:13.767Z,39.02
2019-06-07T08:39:46.340Z,39.27
2019-06-07T08:42:36.487Z,39.86
2019-06-07T08:45:03.655Z,39.96
2019-06-07T08:47:31.983Z,39.93
2019-06-07T08:50:07.951Z,39.71
2019-06-07T08:52:40.415Z,39.88
2019-06-07T08:55:14.440Z,40.77
2019-06-07T08:57:48.830Z,40.96
2019-06-07T09:03:03.429Z,40.98
2019-06-07T09:05:32.402Z,40.89
2019-06-07T09:08:28.258Z,41.48
2019-06-07T09:10:39.563Z,42.13
2019-06-07T09:13:12.241Z,42.79
2019-06-07T09:15:47.025Z,42.09
2019-06-07T09:18:41.294Z,42.53
2019-06-07T09:21:01.167Z,42.64
2019-06-07T09:23:35.670Z,43.64
2019-06-07T09:26:17.964Z,43.24
2019-06-07T09:28:46.150Z,42.99
2019-06-07T09:31:18.481Z,43.64
2019-06-07T09:33:59.788Z,44.24
2019-06-07T09:36:27.132Z,45.74
2019-06-07T09:39:06.442Z,46.01
2019-06-07T09:41:47.651Z,46.00
2019-06-07T09:44:25.827Z,44.50
2019-06-07T09:47:14.183Z,44.57
2019-06-07T09:49:33.061Z,44.79
2019-06-07T09:52:11.042Z,43.73
2019-06-07T09:57:19.943Z,42.99
2019-06-07T09:59:52.670Z,42.22
2019-06-07T10:02:26.147Z,42.29
2019-06-07T10:05:05.221Z,42.61
2019-06-07T10:07:37.652Z,42.00
2019-06-07T10:12:46.081Z,41.32
2019-06-07T10:15:18.671Z,42.60
2019-06-07T10:17:51.075Z,43.06
2019-06-07T10:20:24.552Z,43.45
2019-06-07T10:22:56.925Z,44.18
2019-06-07T10:25:31.449Z,44.04
2019-06-07T10:28:04.060Z,43.62
2019-06-07T10:30:38.257Z,44.33
2019-06-07T10:33:10.741Z,45.29
2019-06-07T10:35:46.200Z,44.79
2019-06-07T10:38:18.735Z,45.45
2019-06-07T10:40:51.042Z,44.67
2019-06-07T10:43:25.524Z,45.24
2019-06-07T10:45:57.731Z,45.10
2019-06-07T10:48:33.467Z,44.82
2019-06-07T10:51:08.599Z,45.49
2019-06-07T10:53:47.995Z,45.22
2019-06-07T10:56:21.797Z,44.16
2019-06-07T10:58:54.114Z,43.39
2019-06-07T11:01:29.675Z,43.61
2019-06-07T11:04:03.471Z,44.11
2019-06-07T11:06:43.931Z,43.83
2019-06-07T11:09:22.042Z,45.49
2019-06-07T11:11:55.568Z,43.94
2019-06-07T11:14:27.899Z,44.97
2019-06-07T11:17:00.270Z,45.63
2019-06-07T11:19:34.236Z,44.83
2019-06-07T11:22:07.937Z,44.05
2019-06-07T11:24:41.019Z,44.21
2019-06-07T11:27:16.574Z,44.23
2019-06-07T11:29:49.159Z,44.40
2019-06-07T11:32:22.711Z,43.78
2019-06-07T11:34:55.399Z,44.53
2019-06-07T11:37:28.772Z,42.97
2019-06-07T11:40:01.147Z,42.34
2019-06-07T11:42:33.602Z,42.24
2019-06-07T11:45:07.931Z,42.46
2019-06-07T11:47:40.652Z,42.14
2019-06-07T11:50:17.649Z,42.14
2019-06-07T11:52:49.989Z,41.67
2019-06-07T11:55:22.270Z,40.90
2019-06-07T11:57:54.819Z,41.47
2019-06-07T12:00:28.818Z,40.78
2019-06-07T12:03:01.432Z,40.18
2019-06-07T12:05:33.898Z,40.55
2019-06-07T12:08:07.967Z,41.47
2019-06-07T12:10:46.702Z,41.52
2019-06-07T12:13:22.413Z,41.32
2019-06-07T12:15:55.209Z,41.57
2019-06-07T12:18:27.606Z,40.88
2019-06-07T12:21:01.381Z,41.73
2019-06-07T12:23:41.353Z,42.94
2019-06-07T12:26:14.664Z,42.82
2019-06-07T12:28:49.193Z,42.20
2019-06-07T12:31:23.858Z,41.68
2019-06-07T12:33:57.801Z,40.28
2019-06-07T12:36:32.510Z,40.35
2019-06-07T12:39:08.286Z,39.80
2019-06-07T12:41:41.699Z,38.23
2019-06-07T12:44:14.637Z,38.69
2019-06-07T12:46:47.177Z,37.78
2019-06-07T12:49:21.177Z,38.01
2019-06-07T12:52:01.177Z,38.78
2019-06-07T12:54:34.427Z,37.87
2019-06-07T12:57:08.054Z,38.90
2019-06-07T12:59:41.870Z,37.87
2019-06-07T13:02:16.234Z,39.64
2019-06-07T13:04:50.763Z,41.56
2019-06-07T13:07:25.120Z,41.15
2019-06-07T13:09:58.761Z,39.92
2019-06-07T13:12:32.190Z,39.98
2019-06-07T13:15:08.710Z,39.03
2019-06-07T13:17:41.156Z,38.70
2019-06-07T13:20:16.137Z,38.62
2019-06-07T13:22:54.028Z,39.24
2019-06-07T13:25:45.944Z,40.31
2019-06-07T13:28:11.449Z,40.29
2019-06-07T13:30:47.589Z,41.27
2019-06-07T13:33:21.508Z,40.61
2019-06-07T13:35:54.207Z,40.32
2019-06-07T13:38:28.884Z,39.87
2019-06-07T13:41:04.892Z,39.46
2019-06-07T13:43:37.587Z,39.34
2019-06-07T13:46:13.048Z,39.49
2019-06-07T13:48:45.109Z,39.91
2019-06-07T13:51:19.203Z,39.42
2019-06-07T13:53:52.584Z,39.81
2019-06-07T13:56:26.044Z,40.50
2019-06-07T13:59:01.796Z,40.39
2019-06-07T14:01:34.287Z,41.10
2019-06-07T14:04:08.085Z,42.25
2019-06-07T14:06:41.223Z,40.99
2019-06-07T14:09:15.948Z,41.82
2019-06-07T14:11:50.969Z,43.55
2019-06-07T14:14:27.452Z,49.17
2019-06-07T14:17:00.437Z,51.20
2019-06-07T14:19:33.627Z,49.77
2019-06-07T14:25:00.289Z,52.88
2019-06-07T14:27:32.700Z,51.29
2019-06-07T14:30:10.799Z,51.23
2019-06-07T14:32:43.056Z,53.50
2019-06-07T14:35:15.310Z,50.78
2019-06-07T14:37:47.758Z,52.39
2019-06-07T14:40:23.408Z,54.27
2019-06-07T14:42:55.636Z,49.15
2019-06-07T14:45:27.834Z,51.13
2019-06-07T14:48:00.200Z,54.27
2019-06-07T14:50:32.827Z,54.27
2019-06-07T14:53:06.183Z,59.28
2019-06-07T14:55:39.115Z,65.64
2019-06-07T14:58:11.585Z,69.37
2019-06-07T15:00:45.168Z,69.80
2019-06-07T15:03:17.533Z,73.77
2019-06-07T15:05:50.119Z,74.18
2019-06-07T15:08:22.973Z,72.13
2019-06-07T15:10:55.251Z,72.47
2019-06-07T15:13:29.424Z,73.77
2019-06-07T15:16:02.259Z,75.25
2019-06-07T15:18:38.001Z,74.72
2019-06-07T15:21:12.766Z,76.02
2019-06-07T15:23:47.638Z,75.85
2019-06-07T15:26:19.854Z,75.94
2019-06-07T15:28:52.265Z,75.41
2019-06-07T15:31:24.462Z,76.34
2019-06-07T15:33:57.626Z,70.12
2019-06-07T15:36:30.273Z,65.20
2019-06-07T15:39:02.825Z,63.17
2019-06-07T15:41:39.622Z,60.44
2019-06-07T15:44:12.499Z,58.87
2019-06-07T15:46:45.747Z,57.33
2019-06-07T15:49:20.910Z,58.82
2019-06-07T15:51:53.314Z,59.57
2019-06-07T15:54:27.077Z,58.93
2019-06-07T15:56:59.314Z,60.32
2019-06-07T15:59:33.099Z,62.74
2019-06-07T16:02:05.710Z,63.96
2019-06-07T16:04:39.668Z,62.16
2019-06-07T16:07:12.096Z,63.85
2019-06-07T16:09:44.564Z,64.01
2019-06-07T16:12:16.974Z,65.43
2019-06-07T16:14:49.212Z,64.93
2019-06-07T16:17:35.015Z,66.30
2019-06-07T16:20:07.881Z,66.10
2019-06-07T16:23:00.943Z,65.50
2019-06-07T16:25:33.937Z,66.75
2019-06-07T16:28:06.830Z,68.76
2019-06-07T16:30:40.623Z,67.24
2019-06-07T16:33:25.526Z,64.07
2019-06-07T16:36:02.273Z,65.72
2019-06-07T16:38:36.244Z,65.43
2019-06-07T16:41:08.786Z,66.54
2019-06-07T16:43:42.551Z,65.67
2019-06-07T16:46:17.565Z,65.63
2019-06-07T16:48:49.845Z,65.25
2019-06-07T16:51:22.333Z,64.44
2019-06-07T16:53:55.466Z,65.17
2019-06-07T16:56:27.771Z,65.73
2019-06-07T16:59:00.422Z,65.14
2019-06-07T17:01:32.919Z,63.65
2019-06-07T17:04:07.189Z,64.46
2019-06-07T17:06:43.733Z,64.39
2019-06-07T17:09:16.884Z,63.28
2019-06-07T17:11:49.256Z,63.55
2019-06-07T17:14:29.194Z,62.65
2019-06-07T17:17:03.798Z,61.90
2019-06-07T17:19:36.092Z,63.02
2019-06-07T17:22:12.334Z,62.41
2019-06-07T17:24:47.651Z,63.17
2019-06-07T17:27:20.260Z,63.50
2019-06-07T17:29:52.948Z,63.08
2019-06-07T17:32:47.747Z,64.25
2019-06-07T17:35:11.600Z,64.83
2019-06-07T17:37:45.838Z,65.07
2019-06-07T17:40:19.952Z,64.50
2019-06-07T17:42:52.430Z,65.53
2019-06-07T17:45:24.799Z,65.66
2019-06-07T17:47:57.177Z,65.42
2019-06-07T17:50:29.469Z,66.33
2019-06-07T17:53:01.939Z,65.36
2019-06-07T17:55:34.170Z,65.39
2019-06-07T17:58:08.522Z,65.42
2019-06-07T18:00:50.855Z,65.06
2019-06-07T18:03:25.220Z,65.17
2019-06-07T18:06:00.622Z,64.84
2019-06-07T18:08:33.309Z,64.95
2019-06-07T18:11:07.750Z,64.12
2019-06-07T18:14:10.012Z,64.69
2019-06-07T18:16:39.281Z,64.88
2019-06-07T18:19:43.148Z,65.13
2019-06-07T18:22:34.091Z,65.35
2019-06-07T18:25:07.549Z,64.67
2019-06-07T18:27:42.228Z,64.31
2019-06-07T18:30:16.413Z,64.78
2019-06-07T18:32:50.737Z,63.76
2019-06-07T18:35:24.469Z,63.07
2019-06-07T18:37:57.202Z,63.83
2019-06-07T18:40:29.857Z,63.24
2019-06-07T18:43:02.369Z,63.50
2019-06-07T18:45:39.843Z,63.08
2019-06-07T18:48:15.858Z,63.77
2019-06-07T18:50:48.575Z,63.16
2019-06-07T18:53:22.484Z,63.90
2019-06-07T18:55:56.393Z,63.23
2019-06-07T18:58:30.814Z,63.90
2019-06-07T19:01:05.473Z,64.48
2019-06-07T19:03:42.376Z,65.08
2019-06-07T19:06:14.898Z,65.41
2019-06-07T19:12:27.841Z,64.91
2019-06-07T19:15:21.262Z,65.10
2019-06-07T19:17:56.155Z,63.98
2019-06-07T19:20:30.188Z,64.25
2019-06-07T19:23:03.290Z,63.63
2019-06-07T19:25:35.876Z,64.13
2019-06-07T19:28:08.319Z,63.76
2019-06-07T19:30:44.897Z,63.70
2019-06-07T19:33:18.504Z,63.17
2019-06-07T19:35:51.390Z,63.46
2019-06-07T19:38:25.435Z,64.32
2019-06-07T19:41:16.504Z,62.81
2019-06-07T19:43:35.348Z,63.38
2019-06-07T19:46:09.785Z,63.54
2019-06-07T19:48:42.387Z,63.01
2019-06-07T19:51:15.376Z,64.31
2019-06-07T19:53:52.870Z,62.75
2019-06-07T19:56:26.766Z,62.40
2019-06-07T19:58:59.725Z,61.37
2019-06-07T20:01:32.162Z,63.49
2019-06-07T20:04:05.236Z,62.61
2019-06-07T20:06:37.714Z,61.94
2019-06-07T20:09:10.380Z,63.30
2019-06-07T20:11:42.980Z,62.64
2019-06-07T20:14:15.502Z,63.18
2019-06-07T20:16:48.003Z,62.10
2019-06-07T20:19:20.469Z,63.25
2019-06-07T20:21:53.073Z,61.38
2019-06-07T20:24:38.148Z,62.62
2019-06-07T20:27:11.638Z,61.34
2019-06-07T20:29:48.301Z,64.19
2019-06-07T20:32:20.640Z,62.11
2019-06-07T20:34:55.159Z,63.00
2019-06-07T20:37:27.842Z,64.39
2019-06-07T20:40:07.267Z,62.85
2019-06-07T20:42:37.004Z,62.92
2019-06-07T20:45:16.230Z,63.99
2019-06-07T20:47:48.509Z,61.91
2019-06-07T20:50:31.790Z,61.47
2019-06-07T20:53:05.138Z,62.47
2019-06-07T20:55:37.605Z,62.65
2019-06-07T20:58:13.062Z,62.95
2019-06-07T21:00:45.566Z,62.09
2019-06-07T21:03:18.132Z,61.64
2019-06-07T21:05:50.655Z,62.97
2019-06-07T21:08:23.191Z,61.87
2019-06-07T21:10:55.517Z,61.19
2019-06-07T21:13:28.468Z,61.82
2019-06-07T21:16:01.971Z,61.60
2019-06-07T21:18:34.525Z,62.69
2019-06-07T21:21:08.557Z,61.81
2019-06-07T21:23:41.466Z,62.64
2019-06-07T21:26:14.098Z,61.36
2019-06-07T21:28:49.240Z,61.37
2019-06-07T21:31:42.783Z,62.22
2019-06-07T21:34:12.678Z,61.01
2019-06-07T21:36:51.161Z,61.68
2019-06-07T21:39:23.458Z,61.55
2019-06-07T21:41:56.761Z,60.30
2019-06-07T21:44:31.659Z,59.37
2019-06-07T21:47:04.334Z,60.75
2019-06-07T21:49:36.733Z,60.73
2019-06-07T21:52:09.162Z,58.17
2019-06-07T21:54:41.667Z,58.82
2019-06-07T21:57:18.700Z,57.00
2019-06-07T21:59:50.899Z,60.32
2019-06-07T22:02:23.367Z,56.53
2019-06-07T22:04:55.626Z,56.69
2019-06-07T22:07:28.312Z,58.28
2019-06-07T22:10:00.656Z,58.81
2019-06-07T22:12:33.641Z,58.24
2019-06-07T22:15:23.398Z,58.00
2019-06-07T22:17:43.507Z,57.83
2019-06-07T22:20:16.643Z,56.18
2019-06-07T22:22:48.938Z,56.01
2019-06-07T22:25:27.844Z,55.57
2019-06-07T22:28:02.283Z,55.55
2019-06-07T22:30:34.791Z,55.35
2019-06-07T22:33:08.571Z,55.26
2019-06-07T22:35:43.872Z,55.83
2019-06-07T22:38:18.507Z,55.62
2019-06-07T22:40:50.948Z,55.77
2019-06-07T22:43:24.228Z,56.00
2019-06-07T22:45:57.279Z,56.62
2019-06-07T22:48:29.641Z,56.68
2019-06-07T22:51:06.421Z,56.86
2019-06-07T22:53:39.186Z,57.71
2019-06-07T22:56:13.924Z,58.29
2019-06-07T22:58:50.957Z,58.64
2019-06-07T23:01:26.463Z,58.64
2019-06-07T23:04:01.035Z,58.68
2019-06-07T23:06:41.258Z,59.00
2019-06-07T23:09:14.914Z,59.19
2019-06-07T23:11:47.362Z,59.20
2019-06-07T23:14:19.688Z,59.70
2019-06-07T23:16:55.850Z,60.01
2019-06-07T23:19:27.112Z,60.77
2019-06-07T23:21:59.384Z,60.40
2019-06-07T23:24:35.157Z,60.80
2019-06-07T23:27:08.599Z,61.30
2019-06-07T23:29:48.018Z,61.28
2019-06-07T23:32:22.757Z,61.11
2019-06-07T23:34:55.808Z,61.23
2019-06-07T23:37:29.866Z,61.74
2019-06-07T23:40:02.255Z,61.81
2019-06-07T23:42:34.556Z,61.97
2019-06-07T23:45:06.900Z,61.14
2019-06-07T23:47:40.030Z,61.36
2019-06-07T23:50:14.062Z,60.83
2019-06-07T23:52:46.437Z,61.14
2019-06-07T23:55:20.074Z,61.97
2019-06-07T23:57:52.749Z,63.53
